Wetterstation Vordersexau
Wetterdaten: Woche 18.09.23 - 24.09.23 (KW38)
Datum Zeit Temp. A. Feuchte A. Luftdruck Regen Wind Richtung Taupunkt Windchill Windben
18.09.2023 00:00 19,8 C 75 % 1005,6 hPa 0,0 l/m 0,0 km/h (0 Bft) N 15,2 C 19,8 C 0,0 km/h (0 Bft)
18.09.2023 01:00 18,4 C 79 % 1005,5 hPa 0,0 l/m 0,0 km/h (0 Bft) O 14,7 C 18,4 C 0,0 km/h (0 Bft)
18.09.2023 02:00 18,3 C 81 % 1005,5 hPa 0,0 l/m 1,1 km/h (1 Bft) O-SO 15,0 C 18,3 C 2,5 km/h (1 Bft)
18.09.2023 03:00 19,9 C 81 % 1005,8 hPa 0,0 l/m 2,5 km/h (1 Bft) O-SO 16,5 C 19,9 C 7,2 km/h (2 Bft)
18.09.2023 04:00 18,3 C 94 % 1005,8 hPa 0,0 l/m 1,1 km/h (1 Bft) SO 17,3 C 18,3 C 2,5 km/h (1 Bft)
18.09.2023 05:00 18,5 C 93 % 1006,8 hPa 0,0 l/m 5,0 km/h (1 Bft) SO 17,3 C 18,5 C 6,1 km/h (2 Bft)
18.09.2023 06:00 18,5 C 94 % 1007,2 hPa 3,9 l/m 6,1 km/h (2 Bft) SO 17,5 C 18,5 C 9,7 km/h (2 Bft)
18.09.2023 07:00 17,8 C 95 % 1006,3 hPa 1,2 l/m 6,1 km/h (2 Bft) N 17,0 C 17,8 C 7,2 km/h (2 Bft)
18.09.2023 08:00 17,5 C 98 % 1006,4 hPa 0,0 l/m 0,0 km/h (0 Bft) SO 17,2 C 17,5 C 3,6 km/h (1 Bft)
18.09.2023 09:00 17,5 C 98 % 1007,5 hPa 1,2 l/m 2,5 km/h (1 Bft) O 17,2 C 17,5 C 6,1 km/h (2 Bft)
18.09.2023 10:00 17,4 C 97 % 1006,8 hPa 1,8 l/m 1,1 km/h (1 Bft) N 16,9 C 17,4 C 2,5 km/h (1 Bft)
18.09.2023 11:00 17,4 C 96 % 1006,7 hPa 0,3 l/m 0,0 km/h (0 Bft) O 16,8 C 17,4 C 2,5 km/h (1 Bft)
18.09.2023 12:00 17,7 C 95 % 1007,1 hPa 0,3 l/m 1,1 km/h (1 Bft) O-SO 16,9 C 17,7 C 2,5 km/h (1 Bft)
18.09.2023 13:00 18,7 C 87 % 1007,0 hPa 0,0 l/m 1,1 km/h (1 Bft) S-SO 16,5 C 18,7 C 2,5 km/h (1 Bft)
18.09.2023 14:00 20,8 C 78 % 1006,9 hPa 0,0 l/m 2,5 km/h (1 Bft) S-SO 16,8 C 20,8 C 3,6 km/h (1 Bft)
18.09.2023 15:00 21,5 C 75 % 1006,9 hPa 0,0 l/m 2,5 km/h (1 Bft) S-SO 16,9 C 21,5 C 3,6 km/h (1 Bft)
18.09.2023 16:00 22,1 C 75 % 1006,6 hPa 0,0 l/m 2,5 km/h (1 Bft) SW 17,5 C 22,1 C 3,6 km/h (1 Bft)
18.09.2023 17:00 22,4 C 69 % 1006,0 hPa 0,0 l/m 3,6 km/h (1 Bft) S 16,4 C 22,4 C 3,6 km/h (1 Bft)
18.09.2023 18:00 22,3 C 68 % 1005,1 hPa 0,0 l/m 3,6 km/h (1 Bft) S-SO 16,1 C 22,3 C 6,1 km/h (2 Bft)
18.09.2023 19:00 21,8 C 72 % 1005,1 hPa 0,0 l/m 1,1 km/h (1 Bft) N 16,5 C 21,8 C 3,6 km/h (1 Bft)
18.09.2023 20:00 19,9 C 83 % 1005,5 hPa 0,0 l/m 0,0 km/h (0 Bft) N-NW 16,9 C 19,9 C 2,5 km/h (1 Bft)
18.09.2023 21:00 19,4 C 75 % 1007,3 hPa 0,0 l/m 3,6 km/h (1 Bft) N 14,8 C 19,4 C 6,1 km/h (2 Bft)
18.09.2023 22:00 16,1 C 95 % 1007,2 hPa 3,6 l/m 0,0 km/h (0 Bft) N 15,3 C 16,1 C 0,0 km/h (0 Bft)
18.09.2023 23:00 16,1 C 97 % 1007,7 hPa 1,5 l/m 0,0 km/h (0 Bft) W-NW 15,6 C 16,1 C 2,5 km/h (1 Bft)
19.09.2023 00:00 16,1 C 98 % 1009,1 hPa 2,4 l/m 1,1 km/h (1 Bft) W-NW 15,8 C 16,1 C 2,5 km/h (1 Bft)
19.09.2023 01:00 16,0 C 98 % 1009,2 hPa 1,8 l/m 0,0 km/h (0 Bft) N 15,7 C 16,0 C 2,5 km/h (1 Bft)
19.09.2023 02:00 15,8 C 99 % 1009,4 hPa 0,0 l/m 0,0 km/h (0 Bft) SO 15,6 C 15,8 C 0,0 km/h (0 Bft)
19.09.2023 03:00 16,4 C 95 % 1009,6 hPa 0,3 l/m 2,5 km/h (1 Bft) W 15,6 C 16,4 C 3,6 km/h (1 Bft)
19.09.2023 04:00 17,0 C 88 % 1009,8 hPa 0,0 l/m 5,0 km/h (1 Bft) W 15,0 C 17,0 C 7,2 km/h (2 Bft)
19.09.2023 05:00 16,8 C 87 % 1010,3 hPa 0,0 l/m 7,2 km/h (2 Bft) W-SW 14,6 C 16,4 C 9,7 km/h (2 Bft)
19.09.2023 06:00 16,7 C 88 % 1010,4 hPa 0,3 l/m 3,6 km/h (1 Bft) W-SW 14,7 C 16,7 C 6,1 km/h (2 Bft)
19.09.2023 07:00 17,0 C 86 % 1010,2 hPa 0,0 l/m 5,0 km/h (1 Bft) W-SW 14,6 C 17,0 C 7,2 km/h (2 Bft)
19.09.2023 08:00 16,5 C 90 % 1010,9 hPa 0,0 l/m 3,6 km/h (1 Bft) W 14,9 C 16,5 C 6,1 km/h (2 Bft)
19.09.2023 09:00 15,9 C 94 % 1012,0 hPa 0,3 l/m 1,1 km/h (1 Bft) S 14,9 C 15,9 C 3,6 km/h (1 Bft)
19.09.2023 10:00 16,8 C 89 % 1012,1 hPa 0,0 l/m 2,5 km/h (1 Bft) W 15,0 C 16,8 C 6,1 km/h (2 Bft)
19.09.2023 11:00 18,8 C 80 % 1012,4 hPa 0,0 l/m 8,6 km/h (2 Bft) W 15,3 C 17,8 C 11,2 km/h (2 Bft)
19.09.2023 12:00 19,3 C 76 % 1012,5 hPa 0,0 l/m 5,0 km/h (1 Bft) W-NW 15,0 C 19,3 C 7,2 km/h (2 Bft)
19.09.2023 13:00 20,6 C 71 % 1012,3 hPa 0,0 l/m 3,6 km/h (1 Bft) W 15,2 C 20,6 C 7,2 km/h (2 Bft)
19.09.2023 14:00 21,8 C 63 % 1012,0 hPa 0,0 l/m 8,6 km/h (2 Bft) W 14,4 C 21,0 C 13,3 km/h (3 Bft)
19.09.2023 15:00 23,1 C 55 % 1011,5 hPa 0,0 l/m 11,2 km/h (2 Bft) S-SW 13,6 C 21,8 C 18,4 km/h (3 Bft)
19.09.2023 16:00 23,2 C 51 % 1011,2 hPa 0,0 l/m 6,1 km/h (2 Bft) W 12,5 C 23,2 C 9,7 km/h (2 Bft)
19.09.2023 17:00 23,4 C 48 % 1010,7 hPa 0,0 l/m 13,3 km/h (3 Bft) W 11,8 C 21,7 C 17,3 km/h (3 Bft)
19.09.2023 18:00 22,9 C 49 % 1010,4 hPa 0,0 l/m 13,3 km/h (3 Bft) W 11,6 C 21,1 C 17,3 km/h (3 Bft)
19.09.2023 19:00 22,3 C 54 % 1010,2 hPa 0,0 l/m 9,7 km/h (2 Bft) W 12,5 C 21,3 C 13,3 km/h (3 Bft)
19.09.2023 20:00 20,5 C 61 % 1010,6 hPa 0,0 l/m 2,5 km/h (1 Bft) S-SW 12,7 C 20,5 C 3,6 km/h (1 Bft)
19.09.2023 21:00 18,7 C 69 % 1010,8 hPa 0,0 l/m 2,5 km/h (1 Bft) O 12,9 C 18,7 C 3,6 km/h (1 Bft)
19.09.2023 22:00 15,8 C 84 % 1011,4 hPa 0,0 l/m 5,0 km/h (1 Bft) O 13,1 C 15,8 C 7,2 km/h (2 Bft)
19.09.2023 23:00 14,6 C 89 % 1011,8 hPa 0,0 l/m 1,1 km/h (1 Bft) O 12,8 C 14,6 C 2,5 km/h (1 Bft)
20.09.2023 00:00 14,0 C 91 % 1011,5 hPa 0,0 l/m 1,1 km/h (1 Bft) O 12,6 C 14,0 C 2,5 km/h (1 Bft)
20.09.2023 01:00 13,4 C 92 % 1011,4 hPa 0,0 l/m 1,1 km/h (1 Bft) N 12,1 C 13,4 C 2,5 km/h (1 Bft)
20.09.2023 02:00 12,6 C 95 % 1011,1 hPa 0,0 l/m 0,0 km/h (0 Bft) N 11,8 C 12,6 C 2,5 km/h (1 Bft)
20.09.2023 03:00 12,7 C 94 % 1011,2 hPa 0,0 l/m 0,0 km/h (0 Bft) S-SO 11,8 C 12,7 C 2,5 km/h (1 Bft)
20.09.2023 04:00 12,3 C 95 % 1011,1 hPa 0,0 l/m 1,1 km/h (1 Bft) N 11,5 C 12,3 C 3,6 km/h (1 Bft)
20.09.2023 05:00 11,9 C 96 % 1010,6 hPa 0,0 l/m 0,0 km/h (0 Bft) S-SO 11,3 C 11,9 C 2,5 km/h (1 Bft)
20.09.2023 06:00 12,0 C 95 % 1010,1 hPa 0,0 l/m 1,1 km/h (1 Bft) N 11,2 C 12,0 C 3,6 km/h (1 Bft)
20.09.2023 07:00 11,9 C 95 % 1009,9 hPa 0,0 l/m 0,0 km/h (0 Bft) S-SO 11,1 C 11,9 C 2,5 km/h (1 Bft)
20.09.2023 08:00 11,7 C 95 % 1009,9 hPa 0,0 l/m 1,1 km/h (1 Bft) S-SO 10,9 C 11,7 C 2,5 km/h (1 Bft)
20.09.2023 09:00 13,2 C 91 % 1009,5 hPa 0,0 l/m 1,1 km/h (1 Bft) S-SO 11,8 C 13,2 C 3,6 km/h (1 Bft)
20.09.2023 10:00 17,4 C 78 % 1009,2 hPa 0,0 l/m 1,1 km/h (1 Bft) S-SO 13,5 C 17,4 C 6,1 km/h (2 Bft)
20.09.2023 11:00 20,8 C 69 % 1009,4 hPa 0,0 l/m 1,1 km/h (1 Bft) N 14,9 C 20,8 C 2,5 km/h (1 Bft)
20.09.2023 12:00 22,1 C 61 % 1008,7 hPa 0,0 l/m 0,0 km/h (0 Bft) W-SW 14,2 C 22,1 C 2,5 km/h (1 Bft)
20.09.2023 13:00 22,9 C 58 % 1008,3 hPa 0,0 l/m 3,6 km/h (1 Bft) SW 14,2 C 22,9 C 6,1 km/h (2 Bft)
20.09.2023 14:00 24,3 C 58 % 1007,4 hPa 0,0 l/m 2,5 km/h (1 Bft) W-SW 15,5 C 24,3 C 3,6 km/h (1 Bft)
20.09.2023 15:00 25,7 C 52 % 1006,7 hPa 0,0 l/m 3,6 km/h (1 Bft) W 15,1 C 25,7 C 9,7 km/h (2 Bft)
20.09.2023 16:00 25,5 C 47 % 1005,8 hPa 0,0 l/m 8,6 km/h (2 Bft) N-NO 13,3 C 25,0 C 11,2 km/h (2 Bft)
20.09.2023 17:00 26,4 C 43 % 1004,9 hPa 0,0 l/m 2,5 km/h (1 Bft) W 12,8 C 26,4 C 3,6 km/h (1 Bft)
20.09.2023 18:00 26,6 C 44 % 1004,2 hPa 0,0 l/m 2,5 km/h (1 Bft) N 13,3 C 26,6 C 3,6 km/h (1 Bft)
20.09.2023 19:00 26,6 C 45 % 1003,7 hPa 0,0 l/m 0,0 km/h (0 Bft) S 13,7 C 26,6 C 2,5 km/h (1 Bft)
20.09.2023 20:00 20,8 C 70 % 1003,3 hPa 0,0 l/m 1,1 km/h (1 Bft) O-SO 15,1 C 20,8 C 2,5 km/h (1 Bft)
20.09.2023 21:00 18,2 C 79 % 1003,8 hPa 0,0 l/m 1,1 km/h (1 Bft) N 14,5 C 18,2 C 2,5 km/h (1 Bft)
20.09.2023 22:00 17,1 C 83 % 1003,7 hPa 0,0 l/m 0,0 km/h (0 Bft) S-SO 14,2 C 17,1 C 2,5 km/h (1 Bft)
20.09.2023 23:00 16,5 C 85 % 1003,7 hPa 0,0 l/m 1,1 km/h (1 Bft) O 14,0 C 16,5 C 3,6 km/h (1 Bft)
21.09.2023 00:00 16,1 C 86 % 1003,4 hPa 0,0 l/m 1,1 km/h (1 Bft) O 13,8 C 16,1 C 2,5 km/h (1 Bft)
21.09.2023 01:00 15,7 C 87 % 1003,2 hPa 0,0 l/m 0,0 km/h (0 Bft) N 13,5 C 15,7 C 0,0 km/h (0 Bft)
21.09.2023 02:00 15,8 C 88 % 1002,8 hPa 0,0 l/m 0,0 km/h (0 Bft) O 13,8 C 15,8 C 2,5 km/h (1 Bft)
21.09.2023 03:00 16,3 C 85 % 1002,1 hPa 0,0 l/m 1,1 km/h (1 Bft) N-NO 13,8 C 16,3 C 2,5 km/h (1 Bft)
21.09.2023 04:00 16,4 C 85 % 1001,6 hPa 0,0 l/m 1,1 km/h (1 Bft) N 13,9 C 16,4 C 2,5 km/h (1 Bft)
21.09.2023 05:00 16,2 C 85 % 1000,6 hPa 0,0 l/m 0,0 km/h (0 Bft) N 13,7 C 16,2 C 2,5 km/h (1 Bft)
21.09.2023 06:00 16,0 C 87 % 1000,8 hPa 0,0 l/m 0,0 km/h (0 Bft) N 13,8 C 16,0 C 0,0 km/h (0 Bft)
21.09.2023 07:00 16,1 C 87 % 1000,2 hPa 0,0 l/m 0,0 km/h (0 Bft) O-SO 13,9 C 16,1 C 2,5 km/h (1 Bft)
21.09.2023 08:00 16,5 C 87 % 1000,0 hPa 0,0 l/m 2,5 km/h (1 Bft) N 14,3 C 16,5 C 3,6 km/h (1 Bft)
21.09.2023 09:00 17,0 C 87 % 1000,0 hPa 0,0 l/m 0,0 km/h (0 Bft) O-SO 14,8 C 17,0 C 0,0 km/h (0 Bft)
21.09.2023 10:00 18,3 C 84 % 999,5 hPa 0,0 l/m 1,1 km/h (1 Bft) O 15,5 C 18,3 C 2,5 km/h (1 Bft)
21.09.2023 11:00 23,2 C 71 % 998,8 hPa 0,0 l/m 1,1 km/h (1 Bft) W-SW 17,6 C 23,2 C 3,6 km/h (1 Bft)
21.09.2023 12:00 24,8 C 56 % 998,4 hPa 0,0 l/m 1,1 km/h (1 Bft) W 15,4 C 24,8 C 2,5 km/h (1 Bft)
21.09.2023 13:00 25,4 C 57 % 997,8 hPa 0,0 l/m 1,1 km/h (1 Bft) W-SW 16,2 C 25,4 C 3,6 km/h (1 Bft)
21.09.2023 14:00 25,0 C 60 % 996,8 hPa 0,0 l/m 3,6 km/h (1 Bft) W 16,7 C 25,0 C 6,1 km/h (2 Bft)
21.09.2023 15:00 25,1 C 57 % 995,9 hPa 0,0 l/m 6,1 km/h (2 Bft) W 16,0 C 25,1 C 9,7 km/h (2 Bft)
21.09.2023 16:00 26,2 C 55 % 995,4 hPa 0,0 l/m 1,1 km/h (1 Bft) W 16,4 C 26,2 C 2,5 km/h (1 Bft)
21.09.2023 17:00 25,0 C 56 % 995,1 hPa 0,0 l/m 6,1 km/h (2 Bft) O-NO 15,6 C 25,0 C 7,2 km/h (2 Bft)
21.09.2023 18:00 20,6 C 80 % 995,1 hPa 0,0 l/m 2,5 km/h (1 Bft) NO 17,0 C 20,6 C 3,6 km/h (1 Bft)
21.09.2023 19:00 19,5 C 90 % 994,0 hPa 0,0 l/m 1,1 km/h (1 Bft) NO 17,8 C 19,5 C 2,5 km/h (1 Bft)
21.09.2023 20:00 18,4 C 95 % 994,7 hPa 0,9 l/m 1,1 km/h (1 Bft) W 17,6 C 18,4 C 2,5 km/h (1 Bft)
21.09.2023 21:00 17,2 C 91 % 998,6 hPa 2,4 l/m 7,2 km/h (2 Bft) S-SW 15,7 C 16,8 C 9,7 km/h (2 Bft)
21.09.2023 22:00 16,5 C 90 % 999,2 hPa 0,6 l/m 5,0 km/h (1 Bft) SW 14,9 C 16,5 C 9,7 km/h (2 Bft)
21.09.2023 23:00 15,4 C 91 % 999,6 hPa 1,2 l/m 7,2 km/h (2 Bft) S-SO 13,9 C 15,0 C 11,2 km/h (2 Bft)
22.09.2023 00:00 14,7 C 90 % 999,6 hPa 1,2 l/m 3,6 km/h (1 Bft) S-SO 13,1 C 14,7 C 6,1 km/h (2 Bft)
22.09.2023 01:00 14,5 C 86 % 1000,1 hPa 0,3 l/m 5,0 km/h (1 Bft) SW 12,2 C 14,5 C 7,2 km/h (2 Bft)
22.09.2023 02:00 14,6 C 86 % 999,7 hPa 0,0 l/m 1,1 km/h (1 Bft) N-NO 12,3 C 14,6 C 2,5 km/h (1 Bft)
22.09.2023 03:00 13,5 C 95 % 999,7 hPa 0,0 l/m 2,5 km/h (1 Bft) N 12,7 C 13,5 C 2,5 km/h (1 Bft)
22.09.2023 04:00 13,2 C 96 % 999,5 hPa 0,0 l/m 0,0 km/h (0 Bft) NO 12,6 C 13,2 C 0,0 km/h (0 Bft)
22.09.2023 05:00 13,4 C 96 % 999,6 hPa 0,0 l/m 1,1 km/h (1 Bft) SO 12,8 C 13,4 C 3,6 km/h (1 Bft)
22.09.2023 06:00 14,9 C 85 % 999,4 hPa 0,0 l/m 3,6 km/h (1 Bft) S-SW 12,4 C 14,9 C 6,1 km/h (2 Bft)
22.09.2023 07:00 15,2 C 84 % 999,3 hPa 0,0 l/m 3,6 km/h (1 Bft) S-SW 12,5 C 15,2 C 6,1 km/h (2 Bft)
22.09.2023 08:00 15,4 C 84 % 1000,7 hPa 0,0 l/m 5,0 km/h (1 Bft) S-SO 12,7 C 15,4 C 6,1 km/h (2 Bft)
22.09.2023 09:00 14,3 C 89 % 1000,6 hPa 0,9 l/m 6,1 km/h (2 Bft) SW 12,5 C 14,3 C 7,2 km/h (2 Bft)
22.09.2023 10:00 13,8 C 91 % 1001,6 hPa 1,5 l/m 3,6 km/h (1 Bft) SW 12,4 C 13,8 C 6,1 km/h (2 Bft)
22.09.2023 11:00 15,7 C 86 % 1001,6 hPa 0,0 l/m 5,0 km/h (1 Bft) S 13,4 C 15,7 C 7,2 km/h (2 Bft)
22.09.2023 12:00 16,4 C 80 % 1001,5 hPa 0,0 l/m 9,7 km/h (2 Bft) SW 12,9 C 14,8 C 17,3 km/h (3 Bft)
22.09.2023 13:00 17,0 C 75 % 1001,9 hPa 0,0 l/m 12,2 km/h (2 Bft) W-SW 12,5 C 14,5 C 18,4 km/h (3 Bft)
22.09.2023 14:00 18,2 C 73 % 1001,5 hPa 0,0 l/m 7,2 km/h (2 Bft) S-SW 13,3 C 17,8 C 11,2 km/h (2 Bft)
22.09.2023 15:00 19,4 C 64 % 1001,2 hPa 0,0 l/m 9,7 km/h (2 Bft) S 12,4 C 18,1 C 17,3 km/h (3 Bft)
22.09.2023 16:00 19,5 C 65 % 1000,9 hPa 0,0 l/m 5,0 km/h (1 Bft) SW 12,7 C 19,5 C 6,1 km/h (2 Bft)
22.09.2023 17:00 20,1 C 61 % 1000,3 hPa 0,0 l/m 6,1 km/h (2 Bft) W-SW 12,3 C 20,1 C 9,7 km/h (2 Bft)
22.09.2023 18:00 18,4 C 72 % 1000,8 hPa 0,0 l/m 2,5 km/h (1 Bft) S 13,3 C 18,4 C 3,6 km/h (1 Bft)
22.09.2023 19:00 16,2 C 89 % 1002,0 hPa 3,3 l/m 5,0 km/h (1 Bft) S 14,4 C 16,2 C 7,2 km/h (2 Bft)
22.09.2023 20:00 16,0 C 76 % 1002,8 hPa 0,0 l/m 12,2 km/h (2 Bft) S-SW 11,8 C 13,3 C 17,3 km/h (3 Bft)
22.09.2023 21:00 14,6 C 82 % 1004,0 hPa 0,0 l/m 6,1 km/h (2 Bft) S 11,6 C 14,6 C 9,7 km/h (2 Bft)
22.09.2023 22:00 13,4 C 84 % 1004,8 hPa 0,3 l/m 1,1 km/h (1 Bft) N 10,8 C 13,4 C 2,5 km/h (1 Bft)
22.09.2023 23:00 12,6 C 91 % 1005,5 hPa 0,0 l/m 0,0 km/h (0 Bft) W-SW 11,2 C 12,6 C 0,0 km/h (0 Bft)
23.09.2023 00:00 13,2 C 88 % 1006,5 hPa 0,0 l/m 7,2 km/h (2 Bft) W-SW 11,3 C 12,7 C 9,7 km/h (2 Bft)
23.09.2023 01:00 12,1 C 92 % 1007,3 hPa 0,0 l/m 2,5 km/h (1 Bft) N 10,8 C 12,1 C 2,5 km/h (1 Bft)
23.09.2023 02:00 12,0 C 94 % 1008,1 hPa 0,0 l/m 0,0 km/h (0 Bft) N 11,1 C 12,0 C 0,0 km/h (0 Bft)
23.09.2023 03:00 11,5 C 95 % 1008,6 hPa 0,0 l/m 0,0 km/h (0 Bft) N 10,7 C 11,5 C 0,0 km/h (0 Bft)
23.09.2023 04:00 10,3 C 97 % 1008,8 hPa 0,0 l/m 0,0 km/h (0 Bft) N 9,8 C 10,3 C 2,5 km/h (1 Bft)
23.09.2023 05:00 9,9 C 98 % 1009,5 hPa 0,0 l/m 0,0 km/h (0 Bft) N 9,6 C 9,9 C 0,0 km/h (0 Bft)
23.09.2023 06:00 9,6 C 99 % 1009,8 hPa 0,0 l/m 0,0 km/h (0 Bft) N 9,5 C 9,6 C 0,0 km/h (0 Bft)
23.09.2023 07:00 8,9 C 98 % 1010,1 hPa 0,0 l/m 0,0 km/h (0 Bft) O-SO 8,6 C 8,9 C 0,0 km/h (0 Bft)
23.09.2023 08:00 8,6 C 99 % 1010,7 hPa 0,0 l/m 2,5 km/h (1 Bft) N 8,5 C 8,6 C 3,6 km/h (1 Bft)
23.09.2023 09:00 9,4 C 98 % 1011,5 hPa 0,0 l/m 0,0 km/h (0 Bft) N 9,1 C 9,4 C 0,0 km/h (0 Bft)
23.09.2023 10:00 12,4 C 91 % 1012,0 hPa 0,0 l/m 0,0 km/h (0 Bft) W 11,0 C 12,4 C 2,5 km/h (1 Bft)
23.09.2023 11:00 14,9 C 76 % 1012,7 hPa 0,0 l/m 2,5 km/h (1 Bft) W 10,7 C 14,9 C 6,1 km/h (2 Bft)
23.09.2023 12:00 15,8 C 74 % 1013,2 hPa 0,0 l/m 7,2 km/h (2 Bft) W 11,2 C 15,4 C 11,2 km/h (2 Bft)
23.09.2023 13:00 17,7 C 59 % 1013,1 hPa 0,0 l/m 2,5 km/h (1 Bft) S-SO 9,6 C 17,7 C 3,6 km/h (1 Bft)
23.09.2023 14:00 18,6 C 54 % 1013,2 hPa 0,0 l/m 1,1 km/h (1 Bft) N 9,1 C 18,6 C 2,5 km/h (1 Bft)
23.09.2023 15:00 17,6 C 60 % 1013,2 hPa 0,0 l/m 1,1 km/h (1 Bft) W-SW 9,7 C 17,6 C 2,5 km/h (1 Bft)
23.09.2023 16:00 13,6 C 79 % 1014,0 hPa 0,0 l/m 6,1 km/h (2 Bft) SO 10,0 C 13,6 C 9,7 km/h (2 Bft)
23.09.2023 17:00 14,7 C 79 % 1001,2 hPa 0,0 l/m 2,5 km/h (1 Bft) O 11,1 C 14,7 C 3,6 km/h (1 Bft)
23.09.2023 18:00 16,8 C 71 % 1014,7 hPa 0,0 l/m 1,1 km/h (1 Bft) N 11,5 C 16,8 C 3,6 km/h (1 Bft)
23.09.2023 19:00 15,2 C 74 % 1015,0 hPa 0,0 l/m 0,0 km/h (0 Bft) N 10,6 C 15,2 C 0,0 km/h (0 Bft)
23.09.2023 20:00 14,1 C 82 % 1016,0 hPa 0,0 l/m 0,0 km/h (0 Bft) O 11,1 C 14,1 C 0,0 km/h (0 Bft)
23.09.2023 21:00 12,9 C 87 % 1016,9 hPa 0,0 l/m 1,1 km/h (1 Bft) N 10,8 C 12,9 C 2,5 km/h (1 Bft)
23.09.2023 22:00 12,2 C 90 % 1017,8 hPa 0,0 l/m 0,0 km/h (0 Bft) SO 10,6 C 12,2 C 2,5 km/h (1 Bft)
23.09.2023 23:00 12,0 C 90 % 1018,6 hPa 0,0 l/m 2,5 km/h (1 Bft) N 10,4 C 12,0 C 6,1 km/h (2 Bft)
24.09.2023 00:00 11,2 C 92 % 1018,9 hPa 0,0 l/m 0,0 km/h (0 Bft) N 9,9 C 11,2 C 0,0 km/h (0 Bft)
24.09.2023 01:00 10,2 C 94 % 1019,2 hPa 0,0 l/m 0,0 km/h (0 Bft) N 9,3 C 10,2 C 2,5 km/h (1 Bft)
24.09.2023 02:00 9,2 C 95 % 1019,3 hPa 0,0 l/m 0,0 km/h (0 Bft) N 8,4 C 9,2 C 2,5 km/h (1 Bft)
24.09.2023 03:00 8,7 C 96 % 1019,7 hPa 0,0 l/m 0,0 km/h (0 Bft) N 8,1 C 8,7 C 2,5 km/h (1 Bft)
24.09.2023 04:00 8,4 C 96 % 1019,9 hPa 0,0 l/m 0,0 km/h (0 Bft) O-SO 7,8 C 8,4 C 0,0 km/h (0 Bft)
24.09.2023 05:00 8,1 C 96 % 1019,8 hPa 0,0 l/m 1,1 km/h (1 Bft) N 7,5 C 8,1 C 3,6 km/h (1 Bft)
24.09.2023 06:00 7,7 C 96 % 1020,1 hPa 0,0 l/m 0,0 km/h (0 Bft) N 7,1 C 7,7 C 2,5 km/h (1 Bft)
24.09.2023 07:00 7,4 C 96 % 1020,4 hPa 0,0 l/m 0,0 km/h (0 Bft) N 6,8 C 7,4 C 0,0 km/h (0 Bft)
24.09.2023 08:00 7,1 C 96 % 1021,0 hPa 0,0 l/m 0,0 km/h (0 Bft) N 6,5 C 7,1 C 0,0 km/h (0 Bft)
24.09.2023 09:00 7,8 C 96 % 1021,4 hPa 0,0 l/m 0,0 km/h (0 Bft) N 7,2 C 7,8 C 2,5 km/h (1 Bft)
24.09.2023 10:00 11,8 C 85 % 1021,6 hPa 0,0 l/m 0,0 km/h (0 Bft) W-NW 9,4 C 11,8 C 2,5 km/h (1 Bft)
24.09.2023 11:00 13,1 C 85 % 1021,7 hPa 0,0 l/m 2,5 km/h (1 Bft) W-NW 10,6 C 13,1 C 3,6 km/h (1 Bft)
24.09.2023 12:00 15,4 C 79 % 1021,4 hPa 0,0 l/m 1,1 km/h (1 Bft) W 11,8 C 15,4 C 2,5 km/h (1 Bft)
24.09.2023 13:00 16,8 C 77 % 1021,0 hPa 0,0 l/m 3,6 km/h (1 Bft) W 12,7 C 16,8 C 6,1 km/h (2 Bft)
24.09.2023 14:00 20,0 C 68 % 1020,1 hPa 0,0 l/m 3,6 km/h (1 Bft) S-SW 13,9 C 20,0 C 7,2 km/h (2 Bft)
24.09.2023 15:00 21,3 C 58 % 1019,6 hPa 0,0 l/m 2,5 km/h (1 Bft) NO 12,7 C 21,3 C 3,6 km/h (1 Bft)
24.09.2023 16:00 21,9 C 43 % 1018,8 hPa 0,0 l/m 1,1 km/h (1 Bft) O 8,7 C 21,9 C 2,5 km/h (1 Bft)
24.09.2023 17:00 22,3 C 49 % 1018,3 hPa 0,0 l/m 1,1 km/h (1 Bft) NO 11,1 C 22,3 C 3,6 km/h (1 Bft)
24.09.2023 18:00 21,1 C 44 % 1018,4 hPa 0,0 l/m 2,5 km/h (1 Bft) O-NO 8,4 C 21,1 C 6,1 km/h (2 Bft)
24.09.2023 19:00 20,2 C 47 % 1018,6 hPa 0,0 l/m 2,5 km/h (1 Bft) N 8,5 C 20,2 C 3,6 km/h (1 Bft)
24.09.2023 20:00 16,6 C 59 % 1018,6 hPa 0,0 l/m 0,0 km/h (0 Bft) N 8,6 C 16,6 C 2,5 km/h (1 Bft)
24.09.2023 21:00 14,0 C 73 % 1018,7 hPa 0,0 l/m 0,0 km/h (0 Bft) O-SO 9,2 C 14,0 C 0,0 km/h (0 Bft)
24.09.2023 22:00 12,0 C 82 % 1019,0 hPa 0,0 l/m 3,6 km/h (1 Bft) O-SO 9,0 C 12,0 C 7,2 km/h (2 Bft)
24.09.2023 23:00 11,5 C 84 % 1018,6 hPa 0,0 l/m 1,1 km/h (1 Bft) N 8,9 C 11,5 C 6,1 km/h (2 Bft)
Min-Datum _ 24.09.23 20.09.23 21.09.23 - 18.09.23 - 24.09.23 24.09.23 18.09.23
_ Min-Zeit 08:21 17:21 19:21 - 00:21 - 08:21 08:21 00:21
Minimum _ 7,1 C 43 % 994,0 hPa - 0,0 km/h (0 Bft) - 6,5 C 7,1 C 0,0 km/h (0 Bft)
Max-Datum _ 20.09.23 19.09.23 24.09.23 18.09.23 19.09.23 - 21.09.23 20.09.23 19.09.23
_ Max-Zeit 18:21 02:21 11:21 06:21 17:21 - 19:21 18:21 15:21
Maximum _ 26,6 C 99 % 1021,7 hPa 3,9 l/m 13,3 km/h
W (3 Bft)
- 17,8 C 26,6 C 18,4 km/h
S-SW (3 Bft)
Durchschnitt _ 16,8 C 80 % 1008,1 hPa #31,5 l/m 2,6 km/h (1 Bft) W 13,0 C 16,7 C 4,7 km/h (1 Bft)
www.sexauwetter.de